Time;durP1;ratioP1;P1;durP2;ratioP2;P2;SDS_P1;SDS_P2;PMS_P1;PMS_P2;Temp;Humidity;BMP_temperature;BMP_pressure;BME280_temperature;BME280_humidity;BME280_pressure;Samples;Min_cycle;Max_cycle;Signal;HPM_P1;HPM_P2
2022/02/18 00:00:56;;;;;;;4.03;1.10;;;4.30;99.90;;;;;;5098817;28;20054;-72
2022/02/18 00:03:27;;;;;;;3.45;0.93;;;4.30;99.90;;;;;;5098763;28;20059;-73
2022/02/18 00:05:54;;;;;;;2.45;0.80;;;4.20;99.90;;;;;;5098441;28;20055;-73
2022/02/18 00:08:22;;;;;;;5.65;1.17;;;4.10;99.90;;;;;;5098460;28;20043;-73
2022/02/18 00:10:50;;;;;;;6.03;1.20;;;4.10;99.90;;;;;;5080370;28;20020;-73
2022/02/18 00:13:19;;;;;;;4.07;1.38;;;4.00;99.90;;;;;;5098007;28;20034;-73
2022/02/18 00:15:46;;;;;;;7.88;1.88;;;4.00;99.90;;;;;;5098090;28;20112;-73
2022/02/18 00:18:13;;;;;;;5.60;1.23;;;3.90;99.90;;;;;;5080042;28;20027;-73
2022/02/18 00:20:41;;;;;;;7.35;1.08;;;3.80;99.90;;;;;;5076658;28;20139;-73
2022/02/18 00:23:09;;;;;;;8.75;1.33;;;3.80;99.90;;;;;;5079332;28;20318;-73
2022/02/18 00:25:38;;;;;;;10.10;1.17;;;3.70;99.90;;;;;;5078737;28;20404;-72
2022/02/18 00:28:06;;;;;;;6.75;1.25;;;3.70;99.90;;;;;;5077277;28;20455;-73
2022/02/18 00:30:34;;;;;;;5.50;1.40;;;3.60;99.90;;;;;;5079053;28;20062;-73
2022/02/18 00:33:01;;;;;;;7.40;1.50;;;3.60;99.90;;;;;;5078390;28;20023;-73
2022/02/18 00:35:28;;;;;;;9.07;1.67;;;3.50;99.90;;;;;;5078315;28;20094;-73
2022/02/18 00:37:57;;;;;;;5.05;1.77;;;3.50;99.90;;;;;;5078018;28;20029;-73
2022/02/18 00:40:25;;;;;;;6.13;1.60;;;3.50;99.90;;;;;;5077458;28;20075;-72
2022/02/18 00:42:54;;;;;;;9.10;1.52;;;3.50;99.90;;;;;;5076167;28;20057;-73
2022/02/18 00:45:21;;;;;;;7.68;2.10;;;3.50;99.90;;;;;;5077160;28;20020;-73
2022/02/18 00:47:49;;;;;;;5.78;2.03;;;3.50;99.90;;;;;;5076083;28;20020;-73
2022/02/18 00:50:22;;;;;;;5.47;1.83;;;3.50;99.90;;;;;;5077405;28;20025;-73
2022/02/18 00:52:49;;;;;;;8.63;1.85;;;3.60;99.90;;;;;;5077201;28;20028;-73
2022/02/18 00:55:19;;;;;;;4.60;1.58;;;3.60;99.90;;;;;;5077529;28;20083;-73
2022/02/18 00:57:47;;;;;;;9.80;1.90;;;3.70;99.90;;;;;;5076529;28;20420;-73
2022/02/18 01:00:16;;;;;;;14.10;1.90;;;3.80;99.90;;;;;;5078331;28;20036;-73
2022/02/18 01:02:44;;;;;;;11.43;2.47;;;3.90;99.90;;;;;;5077790;28;20033;-73
2022/02/18 01:05:13;;;;;;;11.25;1.90;;;4.00;99.90;;;;;;5077681;28;20024;-73
2022/02/18 01:07:41;;;;;;;5.35;1.48;;;4.00;99.90;;;;;;5077721;28;20099;-73
2022/02/18 01:10:10;;;;;;;11.85;1.73;;;4.10;99.90;;;;;;5077778;28;20290;-73
2022/02/18 01:12:37;;;;;;;5.80;2.33;;;4.20;99.90;;;;;;5077452;28;20021;-73
2022/02/18 01:15:06;;;;;;;7.07;2.08;;;4.30;99.90;;;;;;5076861;28;20020;-73
2022/02/18 01:17:34;;;;;;;6.93;1.60;;;4.30;99.90;;;;;;5076787;28;20043;-73
2022/02/18 01:20:03;;;;;;;3.85;1.50;;;4.30;99.90;;;;;;5090279;28;20070;-73
2022/02/18 01:22:30;;;;;;;9.95;1.95;;;4.30;99.90;;;;;;5097032;28;20024;-73
2022/02/18 01:24:58;;;;;;;8.55;1.80;;;4.20;99.90;;;;;;5078818;28;20024;-73
2022/02/18 01:27:25;;;;;;;15.32;1.85;;;4.20;99.90;;;;;;5096833;28;20078;-73
2022/02/18 01:29:52;;;;;;;7.30;1.38;;;4.20;99.90;;;;;;5096763;28;20020;-73
2022/02/18 01:32:20;;;;;;;9.48;2.63;;;4.20;99.90;;;;;;5097420;28;20016;-73
2022/02/18 01:34:47;;;;;;;7.93;1.50;;;4.20;99.90;;;;;;5097632;28;20099;-73
2022/02/18 01:37:15;;;;;;;10.68;2.33;;;4.10;99.90;;;;;;5097633;28;20026;-73
2022/02/18 01:39:43;;;;;;;12.55;2.53;;;4.10;99.90;;;;;;5097573;28;20016;-73
2022/02/18 01:42:10;;;;;;;11.50;2.20;;;4.20;99.90;;;;;;5079779;28;20027;-73
2022/02/18 01:44:47;;;;;;;7.53;1.63;;;4.10;99.90;;;;;;5097368;28;20016;-73
2022/02/18 01:47:22;;;;;;;11.95;2.22;;;4.10;99.90;;;;;;5097512;28;20020;-73
2022/02/18 01:49:59;;;;;;;8.35;1.80;;;4.10;99.90;;;;;;5097749;28;20040;-73
2022/02/18 01:52:37;;;;;;;9.05;2.20;;;4.20;99.90;;;;;;5078695;28;20069;-73
2022/02/18 01:55:10;;;;;;;9.85;1.77;;;4.30;99.90;;;;;;5096495;28;20019;-73
2022/02/18 01:57:47;;;;;;;11.45;2.17;;;4.40;99.90;;;;;;5096316;28;20024;-73
2022/02/18 02:00:17;;;;;;;7.82;1.85;;;4.50;99.90;;;;;;5097263;28;20349;-73
2022/02/18 02:02:44;;;;;;;10.00;2.40;;;4.60;99.90;;;;;;5096477;28;20031;-73
2022/02/18 02:05:12;;;;;;;10.32;2.72;;;4.70;99.90;;;;;;5096875;28;20020;-73
2022/02/18 02:07:41;;;;;;;14.32;2.60;;;4.80;99.90;;;;;;5078606;28;20031;-73
2022/02/18 02:10:11;;;;;;;9.77;2.13;;;4.90;99.90;;;;;;5079061;28;20036;-73
2022/02/18 02:12:51;;;;;;;7.50;1.80;;;5.00;99.90;;;;;;5079743;28;20316;-73
2022/02/18 02:15:24;;;;;;;8.80;3.20;;;5.00;99.90;;;;;;5097775;28;20020;-73
2022/02/18 02:17:52;;;;;;;13.70;2.95;;;5.10;99.90;;;;;;5097776;28;20429;-73
2022/02/18 02:20:22;;;;;;;19.20;3.30;;;5.10;99.90;;;;;;5097110;28;20051;-73
2022/02/18 02:22:50;;;;;;;10.23;2.75;;;5.20;99.90;;;;;;5098620;28;20086;-73
2022/02/18 02:25:17;;;;;;;12.63;3.20;;;5.20;99.90;;;;;;5100995;28;20032;-73
2022/02/18 02:27:44;;;;;;;13.55;2.97;;;5.30;99.90;;;;;;5082247;28;20016;-73
2022/02/18 02:30:13;;;;;;;14.25;3.95;;;5.30;99.90;;;;;;5100045;28;20048;-73
2022/02/18 02:32:41;;;;;;;10.15;2.63;;;5.20;99.90;;;;;;5100225;28;20024;-73
2022/02/18 02:35:09;;;;;;;9.13;2.40;;;5.20;99.90;;;;;;5099895;28;20024;-73
2022/02/18 02:37:36;;;;;;;22.67;3.63;;;5.20;99.90;;;;;;5100455;28;20024;-73
2022/02/18 02:40:04;;;;;;;13.90;2.97;;;5.10;99.90;;;;;;5099912;28;20028;-73
2022/02/18 02:42:31;;;;;;;16.90;2.88;;;5.10;99.90;;;;;;5100592;28;20035;-73
2022/02/18 02:44:58;;;;;;;12.98;3.08;;;5.00;99.90;;;;;;5099675;28;20059;-73
2022/02/18 02:47:26;;;;;;;15.18;3.28;;;5.00;99.90;;;;;;5100983;28;20048;-73
2022/02/18 02:49:53;;;;;;;10.57;3.17;;;4.90;99.90;;;;;;5101180;28;20016;-73
2022/02/18 02:52:21;;;;;;;20.27;3.65;;;5.00;99.90;;;;;;5100696;28;20024;-73
2022/02/18 02:54:49;;;;;;;12.18;4.47;;;5.00;99.90;;;;;;5082547;28;20024;-73
2022/02/18 02:57:16;;;;;;;13.40;4.28;;;5.00;99.90;;;;;;5100505;28;20076;-73
2022/02/18 02:59:44;;;;;;;18.95;4.70;;;5.00;99.90;;;;;;5100761;28;20093;-73
2022/02/18 03:02:11;;;;;;;14.55;5.90;;;5.10;99.90;;;;;;5101417;28;20316;-73
2022/02/18 03:04:38;;;;;;;12.95;4.80;;;5.10;99.90;;;;;;5099386;28;20027;-73
2022/02/18 03:07:05;;;;;;;14.98;5.82;;;5.20;99.90;;;;;;5099435;28;20446;-73
2022/02/18 03:09:33;;;;;;;8.35;4.28;;;5.20;99.90;;;;;;5099378;28;20020;-73
2022/02/18 03:12:01;;;;;;;18.17;4.82;;;5.30;99.90;;;;;;5099381;28;20066;-73
2022/02/18 03:14:28;;;;;;;14.95;4.72;;;5.30;99.90;;;;;;5099806;28;20025;-73
2022/02/18 03:16:55;;;;;;;12.90;3.55;;;5.30;99.90;;;;;;5081636;28;20028;-73
2022/02/18 03:19:22;;;;;;;15.55;5.50;;;5.30;99.90;;;;;;5099320;28;20048;-73
2022/02/18 03:21:51;;;;;;;16.10;5.28;;;5.30;99.90;;;;;;5099235;28;20060;-73
2022/02/18 03:24:19;;;;;;;17.48;4.82;;;5.30;99.90;;;;;;5099864;28;20109;-73
2022/02/18 03:26:46;;;;;;;18.15;5.78;;;5.30;99.90;;;;;;5100467;28;20028;-73
2022/02/18 03:29:14;;;;;;;12.85;5.13;;;5.30;99.90;;;;;;5100128;28;20017;-73
2022/02/18 03:31:41;;;;;;;11.05;4.65;;;5.30;99.90;;;;;;5100025;28;20052;-73
2022/02/18 03:34:08;;;;;;;24.25;7.53;;;5.40;99.90;;;;;;5080920;28;20017;-73
2022/02/18 03:36:36;;;;;;;20.33;5.50;;;5.40;99.90;;;;;;5100331;28;20035;-73
2022/02/18 03:39:03;;;;;;;16.77;5.53;;;5.40;99.90;;;;;;5099717;28;20092;-73
2022/02/18 03:41:32;;;;;;;14.93;5.43;;;5.50;99.90;;;;;;5099392;28;20454;-73
2022/02/18 03:44:00;;;;;;;11.88;6.18;;;5.40;99.90;;;;;;5099220;28;20024;-73
2022/02/18 03:46:27;;;;;;;11.60;4.97;;;5.40;99.90;;;;;;5098725;28;20021;-73
2022/02/18 03:48:54;;;;;;;19.45;6.40;;;5.40;99.90;;;;;;5098643;28;20031;-73
2022/02/18 03:51:22;;;;;;;14.07;4.38;;;5.40;99.90;;;;;;5099254;28;20024;-73
2022/02/18 03:53:49;;;;;;;22.67;6.13;;;5.40;99.90;;;;;;5064065;28;20103;-73
2022/02/18 03:56:17;;;;;;;18.10;5.72;;;5.40;99.90;;;;;;5098769;28;20049;-73
2022/02/18 03:58:45;;;;;;;20.98;6.60;;;5.40;99.90;;;;;;5099341;28;20031;-73
2022/02/18 04:01:12;;;;;;;17.23;5.65;;;5.40;99.90;;;;;;5099744;28;20020;-73
2022/02/18 04:03:43;;;;;;;24.35;6.35;;;5.40;99.90;;;;;;5099245;28;20024;-73
2022/02/18 04:06:12;;;;;;;29.80;6.60;;;5.40;99.90;;;;;;5099084;28;20446;-73
2022/02/18 04:08:41;;;;;;;20.58;5.80;;;5.30;99.90;;;;;;5099418;28;20024;-73
2022/02/18 04:11:09;;;;;;;14.32;4.80;;;5.30;99.90;;;;;;5099228;28;20028;-73
2022/02/18 04:13:36;;;;;;;27.67;7.88;;;5.30;99.90;;;;;;5099280;28;20374;-73
2022/02/18 04:16:04;;;;;;;15.48;5.82;;;5.30;99.90;;;;;;5098208;28;20346;-73
2022/02/18 04:18:31;;;;;;;26.15;7.40;;;5.30;99.90;;;;;;5097775;28;20078;-73
2022/02/18 04:20:58;;;;;;;13.02;5.85;;;5.30;99.90;;;;;;5080598;28;20024;-73
2022/02/18 04:23:27;;;;;;;17.95;7.78;;;5.30;99.90;;;;;;5098450;28;20090;-73
2022/02/18 04:25:54;;;;;;;20.05;6.30;;;5.40;99.90;;;;;;5098136;28;20024;-73
2022/02/18 04:28:21;;;;;;;24.45;8.10;;;5.40;99.90;;;;;;5063185;28;20108;-72
2022/02/18 04:30:48;;;;;;;18.77;6.60;;;5.40;99.90;;;;;;5097966;28;20465;-73
2022/02/18 04:33:16;;;;;;;23.08;6.95;;;5.40;99.90;;;;;;5097606;28;20024;-73
2022/02/18 04:35:44;;;;;;;21.10;7.40;;;5.40;99.90;;;;;;5081163;28;20016;-73
2022/02/18 04:38:11;;;;;;;25.92;8.55;;;5.40;99.90;;;;;;5080543;28;20424;-73
2022/02/18 04:40:38;;;;;;;24.05;8.35;;;5.40;99.90;;;;;;5098612;28;20054;-73
2022/02/18 04:43:06;;;;;;;19.15;7.57;;;5.40;99.90;;;;;;5098990;28;20066;-73
2022/02/18 04:45:33;;;;;;;27.48;8.75;;;5.40;99.90;;;;;;5098167;28;20024;-73
2022/02/18 04:48:00;;;;;;;20.55;8.02;;;5.40;99.90;;;;;;5080608;28;20027;-73
2022/02/18 04:50:28;;;;;;;24.52;8.88;;;5.40;99.90;;;;;;5098500;28;20069;-72
2022/02/18 04:52:56;;;;;;;19.40;8.63;;;5.40;99.90;;;;;;5097610;28;20055;-73
2022/02/18 04:55:24;;;;;;;26.42;9.57;;;5.40;99.90;;;;;;5080177;28;20103;-72
2022/02/18 04:57:51;;;;;;;29.33;9.32;;;5.40;99.90;;;;;;5097307;28;20030;-73
2022/02/18 05:00:19;;;;;;;21.60;9.43;;;5.40;99.90;;;;;;5097237;28;20054;-73
2022/02/18 05:02:47;;;;;;;42.42;10.63;;;5.30;99.90;;;;;;5097497;28;20028;-73
2022/02/18 05:05:15;;;;;;;29.63;11.38;;;5.30;99.90;;;;;;5097073;28;20107;-73
2022/02/18 05:07:43;;;;;;;19.17;8.75;;;5.30;99.90;;;;;;5097042;28;20032;-73
2022/02/18 05:10:10;;;;;;;31.50;10.90;;;5.30;99.90;;;;;;5097108;28;20016;-73
2022/02/18 05:12:38;;;;;;;23.55;8.82;;;5.40;99.90;;;;;;5080072;28;20020;-73
2022/02/18 05:15:05;;;;;;;29.42;10.18;;;5.40;99.90;;;;;;5098234;28;20024;-73
2022/02/18 05:17:33;;;;;;;27.98;8.43;;;5.40;99.90;;;;;;5097911;28;20024;-73
2022/02/18 05:20:00;;;;;;;19.13;7.35;;;5.40;99.90;;;;;;5059777;28;20055;-73
2022/02/18 05:22:28;;;;;;;23.83;7.63;;;5.40;99.90;;;;;;5078269;28;20021;-73
2022/02/18 05:24:55;;;;;;;28.55;9.05;;;5.50;99.90;;;;;;5077522;28;20048;-73
2022/02/18 05:27:22;;;;;;;21.65;8.07;;;5.50;99.90;;;;;;5076817;28;20100;-73
2022/02/18 05:29:49;;;;;;;19.10;6.63;;;5.50;99.90;;;;;;5077575;28;20359;-73
2022/02/18 05:32:18;;;;;;;28.63;6.25;;;5.60;99.90;;;;;;5076503;28;20420;-73
2022/02/18 05:34:45;;;;;;;22.60;6.45;;;5.60;99.90;;;;;;5076489;28;20024;-73
2022/02/18 05:37:13;;;;;;;22.83;7.07;;;5.60;99.90;;;;;;5076590;28;20021;-72
2022/02/18 05:39:40;;;;;;;20.45;7.50;;;5.60;99.90;;;;;;5076425;28;20025;-73
2022/02/18 05:42:07;;;;;;;20.08;6.13;;;5.60;99.90;;;;;;5075474;28;20371;-73
2022/02/18 05:44:35;;;;;;;28.02;6.95;;;5.60;99.90;;;;;;5075322;28;20112;-73
2022/02/18 05:47:03;;;;;;;15.73;5.40;;;5.60;99.90;;;;;;5075410;28;20119;-72
2022/02/18 05:49:31;;;;;;;19.30;4.90;;;5.60;99.90;;;;;;5076881;28;20447;-73
2022/02/18 05:51:58;;;;;;;25.85;5.85;;;5.60;99.90;;;;;;5076139;28;20031;-73
2022/02/18 05:54:25;;;;;;;16.58;4.40;;;5.60;99.90;;;;;;5077301;28;20028;-73
2022/02/18 05:56:53;;;;;;;18.92;5.85;;;5.60;99.90;;;;;;5077305;28;20369;-72
2022/02/18 05:59:20;;;;;;;19.85;5.45;;;5.60;99.90;;;;;;5081269;28;20031;-72
2022/02/18 06:01:47;;;;;;;18.17;4.78;;;5.60;99.90;;;;;;5080202;28;20029;-72
2022/02/18 06:04:15;;;;;;;24.70;4.70;;;5.60;99.90;;;;;;5080722;28;20020;-73
2022/02/18 06:06:44;;;;;;;18.77;5.25;;;5.60;99.90;;;;;;5080395;28;20024;-73
2022/02/18 06:09:11;;;;;;;15.45;4.85;;;5.60;99.90;;;;;;5080199;28;20417;-72
2022/02/18 06:11:40;;;;;;;17.52;4.72;;;5.60;99.90;;;;;;5080123;28;20047;-73
2022/02/18 06:14:08;;;;;;;13.93;3.92;;;5.60;99.90;;;;;;5080362;28;20017;-73
2022/02/18 06:16:35;;;;;;;13.38;3.55;;;5.50;99.90;;;;;;5080480;28;20020;-73
2022/02/18 06:19:04;;;;;;;23.38;4.80;;;5.60;99.90;;;;;;5085030;28;20126;-73
2022/02/18 06:21:31;;;;;;;17.30;3.85;;;5.60;99.90;;;;;;5100847;28;20294;-73
2022/02/18 06:23:59;;;;;;;20.10;4.18;;;5.60;99.90;;;;;;5100265;28;20031;-73
2022/02/18 06:26:26;;;;;;;14.25;4.88;;;5.60;99.90;;;;;;5083067;28;20432;-73
2022/02/18 06:28:54;;;;;;;10.40;3.38;;;5.70;99.90;;;;;;5083392;28;20024;-73
2022/02/18 06:31:21;;;;;;;14.30;4.07;;;5.70;99.90;;;;;;5082981;28;20069;-73
2022/02/18 06:33:49;;;;;;;20.17;3.97;;;5.70;99.90;;;;;;5101002;28;20095;-74
2022/02/18 06:36:17;;;;;;;18.08;3.40;;;5.60;99.90;;;;;;5101552;28;20073;-69
2022/02/18 06:38:45;;;;;;;16.90;3.67;;;5.60;99.90;;;;;;5100793;28;20383;-74
2022/02/18 06:41:13;;;;;;;15.68;4.97;;;5.60;99.90;;;;;;5101059;28;20409;-73
2022/02/18 06:43:41;;;;;;;24.98;6.60;;;5.50;99.90;;;;;;5100795;28;20036;-77
2022/02/18 06:46:08;;;;;;;36.28;7.88;;;5.50;99.90;;;;;;5099960;28;20024;-75
2022/02/18 06:48:36;;;;;;;31.27;11.07;;;5.50;99.90;;;;;;5100072;28;20465;-76
2022/02/18 06:51:04;;;;;;;25.75;8.32;;;5.40;99.90;;;;;;5100318;28;20016;-82
2022/02/18 06:53:32;;;;;;;20.33;5.40;;;5.40;99.90;;;;;;5081886;28;20056;-75
2022/02/18 06:56:00;;;;;;;18.13;4.55;;;5.40;99.90;;;;;;5099892;28;20421;-75
2022/02/18 06:58:28;;;;;;;11.77;4.82;;;5.40;99.90;;;;;;5099745;28;20030;-74
2022/02/18 07:00:55;;;;;;;21.25;4.97;;;5.40;99.90;;;;;;5100268;28;20028;-74
2022/02/18 07:03:22;;;;;;;22.08;7.95;;;5.40;99.90;;;;;;5099841;28;20027;-74
2022/02/18 07:05:50;;;;;;;18.38;5.55;;;5.40;99.90;;;;;;5100931;28;20025;-73
2022/02/18 07:08:19;;;;;;;25.75;7.60;;;5.40;99.90;;;;;;5100272;28;20050;-75
2022/02/18 07:10:46;;;;;;;22.15;5.07;;;5.40;99.90;;;;;;5082448;28;20226;-75
2022/02/18 07:13:13;;;;;;;18.63;4.80;;;5.40;99.90;;;;;;5100784;28;20016;-74
2022/02/18 07:15:42;;;;;;;23.83;5.18;;;5.40;99.90;;;;;;5100469;28;20026;-74
2022/02/18 07:18:11;;;;;;;22.75;3.80;;;5.40;99.90;;;;;;5082260;28;20115;-74
2022/02/18 07:20:39;;;;;;;16.50;5.20;;;5.50;99.90;;;;;;5099954;28;20059;-73
2022/02/18 07:23:09;;;;;;;14.73;3.90;;;5.50;99.90;;;;;;5099463;28;20051;-73
2022/02/18 07:25:36;;;;;;;10.60;3.42;;;5.50;99.90;;;;;;5099781;28;20035;-77
2022/02/18 07:28:04;;;;;;;12.82;4.22;;;5.50;99.90;;;;;;5081104;28;20047;-72
2022/02/18 07:30:32;;;;;;;9.93;3.10;;;5.60;99.90;;;;;;5099601;28;20016;-72
2022/02/18 07:32:59;;;;;;;11.88;3.42;;;5.60;99.90;;;;;;5080983;28;20016;-74
2022/02/18 07:35:32;;;;;;;11.52;3.63;;;5.60;99.90;;;;;;5081014;28;20119;-72
2022/02/18 07:38:01;;;;;;;10.68;3.40;;;5.60;99.90;;;;;;5099157;28;20081;-73
2022/02/18 07:40:29;;;;;;;14.68;3.58;;;5.60;99.90;;;;;;5098831;28;20365;-74
2022/02/18 07:42:56;;;;;;;17.95;2.83;;;5.60;99.90;;;;;;5100262;28;20024;-72
2022/02/18 07:45:24;;;;;;;7.88;3.15;;;5.60;99.90;;;;;;5099790;28;20027;-72
2022/02/18 07:47:56;;;;;;;11.15;2.95;;;5.70;99.90;;;;;;5099698;28;20047;-72
2022/02/18 07:50:24;;;;;;;14.40;3.38;;;5.70;99.90;;;;;;5100161;28;20020;-73
2022/02/18 07:52:52;;;;;;;11.43;3.40;;;5.70;99.90;;;;;;5100076;28;20016;-73
2022/02/18 07:55:20;;;;;;;14.25;3.35;;;5.70;99.90;;;;;;5099859;28;20024;-72
2022/02/18 07:57:47;;;;;;;9.30;3.85;;;5.80;99.90;;;;;;5099214;28;20109;-72
2022/02/18 08:00:15;;;;;;;10.02;2.95;;;5.80;99.90;;;;;;5098326;28;20036;-73
2022/02/18 08:02:43;;;;;;;8.90;3.35;;;5.80;99.90;;;;;;5080558;28;20416;-74
2022/02/18 08:05:10;;;;;;;15.48;4.78;;;5.90;99.90;;;;;;5098139;28;20031;-74
2022/02/18 08:07:38;;;;;;;12.43;3.10;;;6.00;99.90;;;;;;5098488;28;20021;-73
2022/02/18 08:10:06;;;;;;;15.65;2.33;;;6.00;99.90;;;;;;5098783;28;20423;-74
2022/02/18 08:12:34;;;;;;;10.25;2.85;;;6.10;99.90;;;;;;5098295;28;20103;-76
2022/02/18 08:15:03;;;;;;;11.02;2.72;;;6.10;99.90;;;;;;5098365;28;20031;-73
2022/02/18 08:17:38;;;;;;;10.50;3.03;;;6.20;99.90;;;;;;5098564;28;20031;-75
2022/02/18 08:20:07;;;;;;;13.52;2.85;;;6.20;99.90;;;;;;5098288;28;20048;-74
2022/02/18 08:22:35;;;;;;;12.52;2.47;;;6.30;99.90;;;;;;5099280;28;20028;-73
2022/02/18 08:25:03;;;;;;;10.75;2.50;;;6.40;99.90;;;;;;5098855;28;20020;-79
2022/02/18 08:27:31;;;;;;;13.48;2.70;;;6.40;99.90;;;;;;5098951;28;20055;-72
2022/02/18 08:29:58;;;;;;;10.00;2.50;;;6.60;99.90;;;;;;5098807;28;20020;-72
2022/02/18 08:32:26;;;;;;;8.60;2.10;;;6.60;99.90;;;;;;5098778;28;20046;-72
2022/02/18 08:34:54;;;;;;;7.50;1.85;;;6.60;99.90;;;;;;5080289;28;20012;-72
2022/02/18 08:37:22;;;;;;;9.90;2.05;;;6.70;99.90;;;;;;5080455;28;20020;-72
2022/02/18 08:39:49;;;;;;;15.13;1.98;;;6.70;99.90;;;;;;5079888;28;20024;-72
2022/02/18 08:42:17;;;;;;;14.50;2.58;;;6.70;99.90;;;;;;5098409;28;20107;-72
2022/02/18 08:44:45;;;;;;;12.90;2.65;;;6.60;99.90;;;;;;5097674;28;20586;-73
2022/02/18 08:47:12;;;;;;;14.35;1.90;;;6.60;99.90;;;;;;5097639;28;20107;-73
2022/02/18 08:49:42;;;;;;;11.73;2.05;;;6.50;99.90;;;;;;5097501;28;20020;-72
2022/02/18 08:52:10;;;;;;;8.48;1.60;;;6.50;99.90;;;;;;5097678;28;20477;-73
2022/02/18 08:54:39;;;;;;;13.00;2.05;;;6.40;99.90;;;;;;5098936;28;20024;-72
2022/02/18 08:57:07;;;;;;;6.85;1.67;;;6.40;99.90;;;;;;5098369;28;20115;-72
2022/02/18 08:59:34;;;;;;;9.98;1.98;;;6.40;99.90;;;;;;5081129;28;20301;-72
2022/02/18 09:02:02;;;;;;;9.57;1.85;;;6.40;99.90;;;;;;5080665;28;20020;-73
2022/02/18 09:04:29;;;;;;;6.15;1.40;;;6.40;99.90;;;;;;5098220;28;20439;-73
2022/02/18 09:06:57;;;;;;;14.18;2.70;;;6.40;99.90;;;;;;5098078;28;20092;-72
2022/02/18 09:09:24;;;;;;;10.35;1.60;;;6.40;99.90;;;;;;5098042;28;20012;-72
2022/02/18 09:11:52;;;;;;;15.63;2.67;;;6.40;99.90;;;;;;5079356;28;20023;-72
2022/02/18 09:14:19;;;;;;;9.60;2.38;;;6.40;99.90;;;;;;5097665;28;20023;-73
2022/02/18 09:16:46;;;;;;;15.45;2.17;;;6.40;99.90;;;;;;5097416;28;20446;-72
2022/02/18 09:19:15;;;;;;;9.70;1.92;;;6.40;99.90;;;;;;5097275;28;20077;-72
2022/02/18 09:21:42;;;;;;;11.95;1.85;;;6.40;99.90;;;;;;5097770;28;20319;-72
2022/02/18 09:24:09;;;;;;;16.48;3.20;;;6.40;99.90;;;;;;5097546;28;20054;-72
2022/02/18 09:26:36;;;;;;;10.88;2.00;;;6.40;99.90;;;;;;5078934;28;20108;-73
2022/02/18 09:29:04;;;;;;;16.40;2.38;;;6.30;99.90;;;;;;5097583;28;20026;-73
2022/02/18 09:31:32;;;;;;;13.10;2.22;;;6.30;99.90;;;;;;5079637;28;20511;-72
2022/02/18 09:34:00;;;;;;;7.43;1.45;;;6.30;99.90;;;;;;5097378;28;20031;-72
2022/02/18 09:36:29;;;;;;;11.32;1.80;;;6.30;99.90;;;;;;5097694;28;20026;-72
2022/02/18 09:38:57;;;;;;;15.32;3.25;;;6.30;99.90;;;;;;5097659;28;20032;-72
2022/02/18 09:41:25;;;;;;;11.05;2.15;;;6.30;99.90;;;;;;5079756;28;20427;-72
2022/02/18 09:43:54;;;;;;;9.18;2.55;;;6.30;99.90;;;;;;5063227;28;20032;-73
2022/02/18 09:46:25;;;;;;;14.80;4.10;;;6.40;99.90;;;;;;5097165;28;20031;-73
2022/02/18 09:48:54;;;;;;;10.48;2.33;;;6.40;99.90;;;;;;5096672;28;20055;-72
2022/02/18 09:51:22;;;;;;;18.77;1.67;;;6.40;99.90;;;;;;5096635;28;20073;-72
2022/02/18 09:53:49;;;;;;;13.23;2.22;;;6.50;99.90;;;;;;5096924;28;20020;-73
2022/02/18 09:56:19;;;;;;;11.60;2.28;;;6.50;99.90;;;;;;5096807;28;20024;-72
2022/02/18 09:58:47;;;;;;;11.63;1.50;;;6.60;99.90;;;;;;5097171;28;20320;-73
2022/02/18 10:01:15;;;;;;;9.05;1.70;;;6.70;99.90;;;;;;5096621;28;20106;-73
2022/02/18 10:03:43;;;;;;;16.50;3.42;;;6.70;99.90;;;;;;5096463;28;20328;-73
2022/02/18 10:06:10;;;;;;;4.15;1.20;;;6.70;99.90;;;;;;5097520;28;20035;-73
2022/02/18 10:08:49;;;;;;;16.20;1.85;;;6.80;99.90;;;;;;5097952;28;20303;-72
2022/02/18 10:11:17;;;;;;;9.77;2.15;;;6.90;99.90;;;;;;5079456;28;20024;-72
2022/02/18 10:13:46;;;;;;;12.50;1.33;;;7.00;99.90;;;;;;5097408;28;20024;-72
2022/02/18 10:16:20;;;;;;;18.52;2.10;;;7.00;99.90;;;;;;5097432;28;20020;-72
2022/02/18 10:18:54;;;;;;;10.85;3.20;;;7.00;99.90;;;;;;5097370;28;20022;-72
2022/02/18 10:21:24;;;;;;;10.52;1.58;;;7.00;99.90;;;;;;5097108;28;20081;-72
2022/02/18 10:24:05;;;;;;;8.30;1.80;;;7.00;99.90;;;;;;5096669;28;20016;-72
2022/02/18 10:26:38;;;;;;;7.05;1.55;;;7.00;99.90;;;;;;5096484;28;20107;-72
2022/02/18 10:29:07;;;;;;;7.65;1.52;;;7.10;99.90;;;;;;5096355;28;20029;-72
2022/02/18 10:31:35;;;;;;;16.75;1.67;;;7.10;99.90;;;;;;5096575;28;20368;-72
2022/02/18 10:34:11;;;;;;;8.55;3.30;;;7.10;99.90;;;;;;5096594;28;20027;-72
2022/02/18 10:36:44;;;;;;;6.75;1.40;;;7.20;99.90;;;;;;5096489;28;20020;-72
2022/02/18 10:39:29;;;;;;;16.05;1.73;;;7.20;99.90;;;;;;5096799;28;20032;-72
2022/02/18 10:41:59;;;;;;;9.57;2.20;;;7.20;99.90;;;;;;5078843;28;20047;-72
2022/02/18 10:44:28;;;;;;;11.07;2.25;;;7.20;99.90;;;;;;5099448;28;20360;-72
2022/02/18 10:46:56;;;;;;;5.32;1.08;;;7.20;99.90;;;;;;5101130;28;20024;-73
2022/02/18 10:49:26;;;;;;;12.32;1.55;;;7.30;99.90;;;;;;5101246;28;20027;-74
2022/02/18 10:51:54;;;;;;;5.30;1.20;;;7.30;99.90;;;;;;5100685;28;20016;-73
2022/02/18 10:54:33;;;;;;;11.80;2.00;;;7.30;99.90;;;;;;5100894;28;20404;-72
2022/02/18 10:57:14;;;;;;;9.75;1.55;;;7.30;99.90;;;;;;5100741;28;20031;-75
2022/02/18 10:59:42;;;;;;;8.30;1.67;;;7.30;99.90;;;;;;5099925;28;20020;-74
2022/02/18 11:02:09;;;;;;;6.78;1.33;;;7.30;99.90;;;;;;5081578;28;20055;-73
2022/02/18 11:04:36;;;;;;;10.27;2.42;;;7.30;99.90;;;;;;5099859;28;20369;-73
2022/02/18 11:07:12;;;;;;;6.05;1.10;;;7.30;99.90;;;;;;5081738;28;20332;-74
2022/02/18 11:09:40;;;;;;;13.13;2.13;;;7.30;99.90;;;;;;5100024;28;20055;-74
2022/02/18 11:12:10;;;;;;;7.60;1.33;;;7.40;99.90;;;;;;5099486;28;20055;-74
2022/02/18 11:14:47;;;;;;;5.38;1.27;;;7.40;99.90;;;;;;5099490;28;20125;-73
2022/02/18 11:17:15;;;;;;;8.32;1.80;;;7.40;99.90;;;;;;5099779;28;20024;-73
2022/02/18 11:19:44;;;;;;;9.18;1.90;;;7.40;99.90;;;;;;5078600;28;20097;-73
2022/02/18 11:22:11;;;;;;;6.97;1.63;;;7.50;99.90;;;;;;5080327;28;20021;-74
2022/02/18 11:24:39;;;;;;;10.52;2.75;;;7.40;99.90;;;;;;5080099;28;20028;-74
2022/02/18 11:27:07;;;;;;;5.82;1.70;;;7.40;99.90;;;;;;5080131;28;20023;-75
2022/02/18 11:29:36;;;;;;;6.60;1.75;;;7.50;99.90;;;;;;5079694;28;20023;-75
2022/02/18 11:32:23;;;;;;;6.22;1.20;;;7.50;99.90;;;;;;5079700;28;20020;-76
2022/02/18 11:35:20;;;;;;;13.18;2.25;;;7.50;99.90;;;;;;5079113;28;20029;-75
2022/02/18 11:38:06;;;;;;;7.38;1.75;;;7.50;99.90;;;;;;5078622;28;20024;-75
2022/02/18 11:41:04;;;;;;;6.13;1.25;;;7.60;99.90;;;;;;5077621;28;20111;-75
2022/02/18 11:43:45;;;;;;;6.75;1.20;;;7.60;99.90;;;;;;5078504;28;20267;-75
2022/02/18 11:46:22;;;;;;;4.70;1.30;;;7.60;99.90;;;;;;5078900;28;20020;-75
2022/02/18 11:48:50;;;;;;;8.38;1.88;;;7.70;99.90;;;;;;5078400;28;20020;-73
2022/02/18 11:51:26;;;;;;;4.82;1.48;;;7.70;99.90;;;;;;5079043;28;20025;-76
2022/02/18 11:53:57;;;;;;;8.25;1.42;;;7.70;99.90;;;;;;5077471;28;20443;-76
2022/02/18 11:56:41;;;;;;;10.18;1.77;;;7.80;99.90;;;;;;5078259;28;20059;-76
2022/02/18 11:59:12;;;;;;;7.15;1.80;;;7.90;99.90;;;;;;5079431;28;20021;-76
2022/02/18 12:01:58;;;;;;;6.70;1.70;;;7.90;99.90;;;;;;5079856;28;20028;-75
2022/02/18 12:04:27;;;;;;;6.45;1.30;;;7.90;99.90;;;;;;5077852;28;20376;-76
2022/02/18 12:07:24;;;;;;;10.18;1.13;;;8.00;99.90;;;;;;5078112;28;20409;-76
2022/02/18 12:09:52;;;;;;;12.02;1.20;;;8.10;99.90;;;;;;5062218;28;20421;-73
2022/02/18 12:12:51;;;;;;;2.15;0.95;;;8.10;99.90;;;;;;5078565;28;20323;-77
2022/02/18 12:15:26;;;;;;;3.40;1.27;;;8.20;99.90;;;;;;5058585;28;20033;-71
2022/02/18 12:18:07;;;;;;;9.35;2.28;;;8.20;99.90;;;;;;5058553;28;20056;-71
2022/02/18 12:20:41;;;;;;;5.43;1.80;;;8.20;99.90;;;;;;5074923;28;20059;-71
2022/02/18 12:23:29;;;;;;;7.07;1.40;;;8.20;99.90;;;;;;5078327;28;20475;-70
2022/02/18 12:26:27;;;;;;;7.32;1.33;;;8.30;99.90;;;;;;5060808;28;20035;-71
2022/02/18 12:29:16;;;;;;;9.10;1.13;;;8.30;99.90;;;;;;5078431;28;20425;-71
2022/02/18 12:31:55;;;;;;;10.93;3.20;;;8.30;99.90;;;;;;5078592;28;20109;-71
2022/02/18 12:34:31;;;;;;;8.30;2.50;;;8.40;99.90;;;;;;5078418;28;20020;-71
2022/02/18 12:36:59;;;;;;;10.85;3.60;;;8.50;99.90;;;;;;5078405;28;20035;-71
2022/02/18 12:39:47;;;;;;;4.25;1.40;;;8.50;99.90;;;;;;5078288;28;20024;-71
2022/02/18 12:42:23;;;;;;;5.47;1.98;;;8.50;99.90;;;;;;5078901;28;20440;-71
2022/02/18 12:44:55;;;;;;;3.70;1.40;;;8.60;99.90;;;;;;5078168;28;20034;-72
2022/02/18 12:47:29;;;;;;;6.18;2.85;;;8.60;99.90;;;;;;5078192;28;20424;-72
2022/02/18 12:50:07;;;;;;;8.32;3.22;;;8.70;99.90;;;;;;5078452;28;20108;-72
2022/02/18 12:52:36;;;;;;;7.28;2.33;;;8.70;99.90;;;;;;5078031;28;20424;-72
2022/02/18 12:55:08;;;;;;;4.40;1.60;;;8.80;99.90;;;;;;5078089;28;20024;-72
2022/02/18 12:57:41;;;;;;;5.32;1.65;;;8.90;99.90;;;;;;5077508;28;20078;-72
2022/02/18 13:00:11;;;;;;;4.75;0.82;;;9.00;99.90;;;;;;5077645;28;20024;-72
2022/02/18 13:02:48;;;;;;;10.45;3.72;;;9.10;99.90;;;;;;5077998;28;20024;-72